Time;durP1;ratioP1;P1;durP2;ratioP2;P2;SDS_P1;SDS_P2;PMS_P1;PMS_P2;Temp;Humidity;BMP_temperature;BMP_pressure;BME280_temperature;BME280_humidity;BME280_pressure;Samples;Min_cycle;Max_cycle;Signal;HPM_P1;HPM_P2
2023/12/23 00:01:24;;;;;;;0.15;0.15;;;1.60;99.90;;;;;;5080923;28;20093;-70
2023/12/23 00:03:49;;;;;;;0.25;0.20;;;1.50;99.90;;;;;;5080986;28;20251;-71
2023/12/23 00:06:15;;;;;;;0.20;0.20;;;1.70;99.90;;;;;;5080789;28;20016;-70
2023/12/23 00:08:41;;;;;;;0.85;0.20;;;1.70;99.90;;;;;;5079473;28;20085;-71
2023/12/23 00:11:07;;;;;;;0.47;0.13;;;1.60;99.90;;;;;;5080750;28;20028;-70
2023/12/23 00:13:33;;;;;;;0.20;0.10;;;;;;;;;;5080912;28;20032;-71
2023/12/23 00:15:59;;;;;;;0.10;0.10;;;;;;;;;;5080658;28;20087;-70
2023/12/23 00:18:25;;;;;;;2.22;0.20;;;1.80;99.90;;;;;;5080680;28;20331;-72
2023/12/23 00:20:50;;;;;;;0.10;0.10;;;1.70;99.90;;;;;;5081064;28;20021;-70
2023/12/23 00:23:16;;;;;;;0.10;0.10;;;1.70;99.90;;;;;;5080944;28;20347;-70
2023/12/23 00:25:42;;;;;;;0.00;0.00;;;1.60;99.90;;;;;;5079315;28;20048;-71
2023/12/23 00:28:08;;;;;;;0.17;0.10;;;;;;;;;;5080739;28;20123;-71
2023/12/23 00:30:34;;;;;;;0.05;0.05;;;1.70;99.90;;;;;;5080768;28;20036;-71
2023/12/23 00:33:02;;;;;;;0.10;0.10;;;;;;;;;;5080578;28;20028;-71
2023/12/23 00:35:28;;;;;;;0.10;0.00;;;1.60;99.90;;;;;;5093167;28;20044;-71
2023/12/23 00:37:54;;;;;;;0.17;0.17;;;;;;;;;;5081049;28;20039;-70
2023/12/23 00:40:20;;;;;;;0.20;0.20;;;;;;;;;;5080447;28;20033;-71
2023/12/23 00:42:45;;;;;;;0.63;0.20;;;1.70;99.90;;;;;;5079156;28;20034;-71
2023/12/23 00:45:11;;;;;;;0.30;0.13;;;;;;;;;;5080437;28;20052;-72
2023/12/23 00:47:37;;;;;;;0.40;0.13;;;;;;;;;;5079188;28;20573;-73
2023/12/23 00:50:04;;;;;;;0.10;0.10;;;1.50;99.90;;;;;;5079193;28;20032;-73
2023/12/23 00:52:31;;;;;;;0.20;0.10;;;;;;;;;;5080717;28;20055;-73
2023/12/23 00:54:57;;;;;;;0.10;0.10;;;;;;;;;;5080469;28;20036;-73
2023/12/23 00:57:23;;;;;;;0.10;0.10;;;;;;;;;;5080643;28;20062;-73
2023/12/23 00:59:49;;;;;;;0.20;0.10;;;;;;;;;;5080553;28;20085;-73
2023/12/23 01:02:15;;;;;;;0.22;0.10;;;;;;;;;;5080426;28;20052;-73
2023/12/23 01:04:41;;;;;;;0.15;0.10;;;;;;;;;;5080357;28;20031;-73
2023/12/23 01:07:07;;;;;;;0.20;0.15;;;;;;;;;;5080407;28;20024;-73
2023/12/23 01:09:33;;;;;;;0.10;0.10;;;;;;;;;;5080222;28;20024;-73
2023/12/23 01:11:59;;;;;;;0.10;0.10;;;;;;;;;;5080127;28;20044;-73
2023/12/23 01:14:25;;;;;;;0.35;0.35;;;;;;;;;;5080527;28;20036;-74
2023/12/23 01:16:51;;;;;;;0.10;0.10;;;;;;;;;;5080188;28;20208;-73
2023/12/23 01:19:17;;;;;;;0.13;0.10;;;;;;;;;;5080396;28;20021;-73
2023/12/23 01:21:43;;;;;;;0.35;0.10;;;1.50;99.90;;;;;;5080466;28;20021;-73
2023/12/23 01:24:09;;;;;;;0.10;0.10;;;;;;;;;;5080335;28;20281;-73
2023/12/23 01:26:34;;;;;;;0.10;0.10;;;1.60;99.90;;;;;;5079960;28;20045;-73
2023/12/23 01:29:00;;;;;;;0.10;0.10;;;;;;;;;;5062145;28;20028;-72
2023/12/23 01:31:27;;;;;;;0.32;0.22;;;1.70;99.90;;;;;;5080036;28;20033;-72
2023/12/23 01:33:53;;;;;;;0.10;0.10;;;1.50;99.90;;;;;;5080232;28;20024;-74
2023/12/23 01:36:19;;;;;;;0.10;0.10;;;;;;;;;;5085801;28;20096;-74
2023/12/23 01:38:45;;;;;;;0.00;0.00;;;;;;;;;;5100373;28;20201;-73
2023/12/23 01:41:11;;;;;;;0.20;0.17;;;;;;;;;;5100407;28;20030;-74
2023/12/23 01:43:37;;;;;;;0.47;0.38;;;;;;;;;;5104218;28;20389;-73
2023/12/23 01:46:03;;;;;;;0.10;0.10;;;1.50;99.90;;;;;;5104017;28;20020;-73
2023/12/23 01:48:34;;;;;;;0.17;0.17;;;1.50;99.90;;;;;;5102803;28;20204;-73
2023/12/23 01:51:00;;;;;;;0.40;0.20;;;1.40;99.90;;;;;;5103794;28;20024;-72
2023/12/23 01:53:27;;;;;;;0.20;0.13;;;1.40;99.90;;;;;;5103475;28;20278;-72
2023/12/23 01:55:53;;;;;;;0.30;0.30;;;;;;;;;;5103245;28;20044;-72
2023/12/23 01:58:21;;;;;;;0.20;0.20;;;1.40;99.90;;;;;;5103465;28;20020;-72
2023/12/23 02:00:47;;;;;;;0.20;0.20;;;;;;;;;;5104661;28;20035;-74
2023/12/23 02:03:13;;;;;;;0.55;0.20;;;1.40;99.90;;;;;;5104867;28;20035;-75
2023/12/23 02:05:39;;;;;;;0.00;0.00;;;;;;;;;;5105275;28;20020;-77
2023/12/23 02:08:07;;;;;;;0.10;0.10;;;1.40;99.90;;;;;;5104741;28;20016;-75
2023/12/23 02:10:33;;;;;;;0.28;0.28;;;1.30;99.90;;;;;;5104662;28;20028;-74
2023/12/23 02:12:59;;;;;;;0.30;0.20;;;;;;;;;;5104898;28;20308;-74
2023/12/23 02:15:27;;;;;;;0.10;0.10;;;1.10;99.90;;;;;;5105076;28;20043;-74
2023/12/23 02:18:00;;;;;;;0.10;0.10;;;1.50;99.90;;;;;;5105142;28;20118;-75
2023/12/23 02:20:27;;;;;;;0.20;0.20;;;;;;;;;;5088806;28;20028;-75
2023/12/23 02:22:53;;;;;;;0.28;0.10;;;1.30;99.90;;;;;;5084211;28;20044;-74
2023/12/23 02:25:19;;;;;;;0.05;0.05;;;1.30;99.90;;;;;;5083777;28;20024;-74
2023/12/23 02:27:50;;;;;;;0.63;0.20;;;1.40;99.90;;;;;;5083622;28;20063;-75
2023/12/23 02:30:16;;;;;;;0.50;0.50;;;;;;;;;;5083700;28;20031;-74
2023/12/23 02:32:43;;;;;;;0.45;0.20;;;1.40;99.90;;;;;;5083377;28;20024;-73
2023/12/23 02:35:09;;;;;;;0.30;0.17;;;;;;;;;;5082402;28;20034;-74
2023/12/23 02:37:35;;;;;;;0.10;0.10;;;;;;;;;;5099837;28;20116;-74
2023/12/23 02:40:01;;;;;;;0.40;0.20;;;;;;;;;;5103699;28;20328;-74
2023/12/23 02:42:27;;;;;;;0.17;0.17;;;;;;;;;;5102934;28;20324;-73
2023/12/23 02:44:53;;;;;;;1.02;0.10;;;;;;;;;;5101794;28;20104;-74
2023/12/23 02:47:19;;;;;;;0.20;0.20;;;;;;;;;;5103410;28;20024;-77
2023/12/23 02:49:45;;;;;;;0.30;0.13;;;1.40;99.90;;;;;;5104365;28;20027;-74
2023/12/23 02:52:11;;;;;;;0.03;0.03;;;;;;;;;;5103051;28;20281;-73
2023/12/23 02:54:37;;;;;;;1.75;0.20;;;1.40;99.90;;;;;;5101617;28;20046;-74
2023/12/23 02:57:03;;;;;;;0.32;0.20;;;;;;;;;;5101591;28;20038;-73
2023/12/23 02:59:29;;;;;;;0.28;0.28;;;;;;;;;;5103255;28;20032;-74
2023/12/23 03:01:54;;;;;;;0.10;0.10;;;1.50;99.90;;;;;;5103307;28;20091;-75
2023/12/23 03:04:20;;;;;;;0.60;0.10;;;;;;;;;;5102872;28;20140;-75
2023/12/23 03:06:47;;;;;;;0.20;0.20;;;;;;;;;;5104700;28;20027;-74
2023/12/23 03:09:13;;;;;;;0.57;0.20;;;;;;;;;;5104635;28;20024;-75
2023/12/23 03:11:39;;;;;;;0.00;0.00;;;;;;;;;;5102623;28;20134;-75
2023/12/23 03:14:05;;;;;;;1.40;0.20;;;1.50;99.90;;;;;;5103309;28;20527;-73
2023/12/23 03:16:34;;;;;;;0.10;0.10;;;;;;;;;;5102001;28;20311;-72
2023/12/23 03:19:00;;;;;;;;;;;1.50;99.90;;;;;;5101274;28;20020;-72
2023/12/23 03:21:26;;;;;;;0.10;0.10;;;1.40;99.90;;;;;;5102304;28;20266;-72
2023/12/23 03:23:52;;;;;;;0.30;0.10;;;;;;;;;;5101833;28;20028;-71
2023/12/23 03:26:18;;;;;;;0.00;0.00;;;;;;;;;;5101821;28;20403;-72
2023/12/23 03:28:44;;;;;;;0.15;0.15;;;;;;;;;;5103027;28;20381;-71
2023/12/23 03:31:10;;;;;;;0.10;0.10;;;1.30;99.90;;;;;;5102756;28;20356;-74
2023/12/23 03:33:36;;;;;;;0.10;0.10;;;1.40;99.90;;;;;;5105677;28;20023;-80
2023/12/23 03:36:02;;;;;;;0.17;0.17;;;;;;;;;;5105455;28;20035;-86
2023/12/23 03:38:28;;;;;;;0.00;0.00;;;;;;;;;;5104748;28;20087;-74
2023/12/23 03:40:54;;;;;;;0.08;0.08;;;1.50;99.90;;;;;;5104454;28;20036;-74
2023/12/23 03:43:20;;;;;;;0.20;0.17;;;;;;;;;;5103808;28;20057;-74
2023/12/23 03:45:46;;;;;;;0.00;0.00;;;;;;;;;;5104555;28;20090;-74
2023/12/23 03:48:11;;;;;;;0.10;0.10;;;1.20;99.90;;;;;;5102861;28;20012;-75
2023/12/23 03:50:37;;;;;;;0.10;0.00;;;;;;;;;;5104518;28;20137;-75
2023/12/23 03:53:03;;;;;;;0.15;0.10;;;1.30;99.90;;;;;;5103167;28;20342;-74
2023/12/23 03:55:32;;;;;;;0.70;0.10;;;1.30;99.90;;;;;;5083269;22;20065;-75
2023/12/23 03:57:58;;;;;;;0.00;0.00;;;1.30;99.90;;;;;;5022691;28;20034;-75
2023/12/23 04:00:25;;;;;;;0.43;0.10;;;;;;;;;;5006564;28;20029;-75
2023/12/23 04:02:51;;;;;;;0.10;0.10;;;;;;;;;;5041002;28;20039;-74
2023/12/23 04:05:17;;;;;;;0.32;0.03;;;;;;;;;;5043392;28;20024;-75
2023/12/23 04:07:43;;;;;;;0.68;0.13;;;;;;;;;;5043287;28;20018;-76
2023/12/23 04:10:09;;;;;;;0.25;0.10;;;1.40;99.90;;;;;;5024828;28;20109;-74
2023/12/23 04:12:35;;;;;;;0.00;0.00;;;;;;;;;;5042249;28;20080;-74
2023/12/23 04:15:05;;;;;;;0.13;0.10;;;1.40;99.90;;;;;;5041959;28;20038;-74
2023/12/23 04:17:31;;;;;;;0.10;0.10;;;;;;;;;;5041203;28;20075;-74
2023/12/23 04:19:57;;;;;;;0.17;0.10;;;1.40;99.90;;;;;;5041428;28;20025;-73
2023/12/23 04:22:23;;;;;;;0.43;0.10;;;;;;;;;;5040785;28;20595;-73
2023/12/23 04:24:49;;;;;;;0.00;0.00;;;;;;;;;;5023643;28;20084;-78
2023/12/23 04:27:15;;;;;;;0.00;0.00;;;;;;;;;;5041684;28;20025;-74
2023/12/23 04:29:41;;;;;;;1.00;0.20;;;;;;;;;;5042120;28;20379;-75
2023/12/23 04:32:07;;;;;;;0.13;0.10;;;;;;;;;;5041515;28;20021;-74
2023/12/23 04:34:32;;;;;;;0.20;0.20;;;1.50;99.90;;;;;;5041118;28;20041;-74
2023/12/23 04:36:58;;;;;;;0.00;0.00;;;;;;;;;;5051763;28;20025;-73
2023/12/23 04:39:24;;;;;;;0.10;0.10;;;;;;;;;;5060998;28;20029;-74
2023/12/23 04:41:52;;;;;;;0.10;0.10;;;;;;;;;;5061235;28;20393;-78
2023/12/23 04:44:18;;;;;;;0.13;0.13;;;1.50;99.90;;;;;;5044038;28;20017;-77
2023/12/23 04:46:47;;;;;;;0.10;0.10;;;1.50;99.90;;;;;;5061654;28;20074;-76
2023/12/23 04:49:13;;;;;;;0.20;0.08;;;;;;;;;;5061528;28;20047;-78
2023/12/23 04:51:43;;;;;;;4.93;0.38;;;;;;;;;;5061938;28;20317;-75
2023/12/23 04:54:09;;;;;;;0.20;0.20;;;;;;;;;;5042925;28;20041;-73
2023/12/23 04:56:36;;;;;;;0.17;0.10;;;;;;;;;;5060845;28;20060;-74
2023/12/23 04:59:02;;;;;;;0.10;0.10;;;;;;;;;;5061558;28;20043;-74
2023/12/23 05:01:28;;;;;;;0.17;0.17;;;;;;;;;;5061795;28;20025;-74
2023/12/23 05:03:54;;;;;;;0.10;0.10;;;;;;;;;;5061518;28;20025;-77
2023/12/23 05:06:20;;;;;;;0.22;0.20;;;;;;;;;;5044328;28;20029;-78
2023/12/23 05:08:46;;;;;;;0.15;0.05;;;;;;;;;;5062596;28;20021;-80
2023/12/23 05:11:12;;;;;;;0.50;0.40;;;;;;;;;;5045237;28;20079;-78
2023/12/23 05:13:38;;;;;;;0.28;0.20;;;;;;;;;;5044339;28;20301;-79
2023/12/23 05:16:04;;;;;;;0.20;0.20;;;;;;;;;;5044729;28;20044;-79
2023/12/23 05:18:30;;;;;;;0.20;0.20;;;;;;;;;;5066333;28;20048;-79
2023/12/23 05:20:56;;;;;;;0.20;0.20;;;;;;;;;;5066557;28;20321;-79
2023/12/23 05:23:22;;;;;;;0.25;0.25;;;;;;;;;;5066468;28;20036;-78
2023/12/23 05:25:50;;;;;;;0.30;0.20;;;;;;;;;;5065366;28;20029;-75
2023/12/23 05:28:16;;;;;;;2.50;0.38;;;;;;;;;;5025855;28;20213;-75
2023/12/23 05:30:42;;;;;;;0.55;0.20;;;;;;;;;;5026555;28;20026;-75
2023/12/23 05:33:08;;;;;;;0.40;0.40;;;1.50;99.90;;;;;;5008421;28;20030;-78
2023/12/23 05:35:34;;;;;;;0.60;0.17;;;;;;;;;;5026436;28;20314;-78
2023/12/23 05:38:00;;;;;;;4.70;0.28;;;;;;;;;;5027527;28;20304;-74
2023/12/23 05:40:26;;;;;;;0.85;0.38;;;;;;;;;;5046308;28;20022;-74
2023/12/23 05:42:52;;;;;;;0.30;0.15;;;;;;;;;;5045842;28;20121;-78
2023/12/23 05:45:18;;;;;;;0.20;0.20;;;;;;;;;;5046168;28;20085;-76
2023/12/23 05:47:44;;;;;;;0.30;0.20;;;;;;;;;;5046231;28;20305;-75
2023/12/23 05:50:10;;;;;;;0.77;0.40;;;;;;;;;;5046113;28;20027;-75
2023/12/23 05:52:36;;;;;;;0.10;0.10;;;;;;;;;;5046132;28;20076;-74
2023/12/23 05:55:03;;;;;;;0.32;0.30;;;;;;;;;;5045484;28;20061;-76
2023/12/23 05:57:29;;;;;;;0.30;0.20;;;;;;;;;;5037368;23;20069;-74
2023/12/23 05:59:55;;;;;;;0.10;0.10;;;;;;;;;;5024105;28;20017;-74
2023/12/23 06:02:21;;;;;;;0.38;0.17;;;;;;;;;;5036350;28;20039;-74
2023/12/23 06:04:47;;;;;;;2.33;0.32;;;0.90;99.90;;;;;;5044776;28;20072;-75
2023/12/23 06:07:14;;;;;;;1.30;0.63;;;;;;;;;;5044477;28;20037;-74
2023/12/23 06:09:40;;;;;;;0.20;0.20;;;;;;;;;;5044269;28;20213;-75
2023/12/23 06:12:08;;;;;;;1.65;0.30;;;;;;;;;;5044232;28;20057;-74
2023/12/23 06:14:36;;;;;;;0.30;0.20;;;;;;;;;;5044504;28;20377;-74
2023/12/23 06:17:02;;;;;;;0.20;0.20;;;;;;;;;;5026690;28;20156;-75
2023/12/23 06:19:28;;;;;;;0.15;0.15;;;;;;;;;;5043831;28;20029;-74
2023/12/23 06:21:53;;;;;;;0.20;0.20;;;0.90;99.90;;;;;;5025660;28;20081;-72
2023/12/23 06:24:19;;;;;;;0.10;0.10;;;;;;;;;;5041168;28;20072;-71
2023/12/23 06:26:46;;;;;;;0.20;0.20;;;1.00;99.90;;;;;;5042384;28;20059;-72
2023/12/23 06:29:12;;;;;;;0.10;0.10;;;;;;;;;;5042065;28;20100;-73
2023/12/23 06:31:38;;;;;;;0.40;0.10;;;;;;;;;;5042221;28;20053;-72
2023/12/23 06:34:04;;;;;;;0.10;0.10;;;;;;;;;;5024385;28;20033;-73
2023/12/23 06:36:30;;;;;;;0.05;0.05;;;1.00;99.90;;;;;;5042015;28;20033;-73
2023/12/23 06:38:56;;;;;;;0.20;0.20;;;;;;;;;;5040759;28;20029;-73
2023/12/23 06:41:22;;;;;;;0.20;0.20;;;;;;;;;;5062161;28;20039;-73
2023/12/23 06:43:48;;;;;;;0.08;0.08;;;;;;;;;;5062518;28;20051;-73
2023/12/23 06:46:14;;;;;;;0.10;0.10;;;;;;;;;;5062783;28;20076;-73
2023/12/23 06:48:40;;;;;;;0.15;0.10;;;;;;;;;;5045237;28;20037;-74
2023/12/23 06:51:07;;;;;;;0.00;0.00;;;;;;;;;;5063330;28;20017;-74
2023/12/23 06:53:33;;;;;;;0.13;0.13;;;;;;;;;;5062659;28;20336;-74
2023/12/23 06:55:59;;;;;;;0.10;0.10;;;;;;;;;;5044168;28;20060;-72
2023/12/23 06:58:28;;;;;;;0.25;0.10;;;1.50;99.90;;;;;;5062155;28;20032;-72
2023/12/23 07:00:54;;;;;;;0.80;0.20;;;;;;;;;;5043997;28;20103;-72
2023/12/23 07:03:21;;;;;;;0.20;0.20;;;1.60;99.90;;;;;;5062409;28;20025;-73
2023/12/23 07:05:47;;;;;;;0.25;0.13;;;;;;;;;;5061927;28;20029;-73
2023/12/23 07:08:13;;;;;;;0.15;0.15;;;;;;;;;;5061926;28;20236;-73
2023/12/23 07:10:39;;;;;;;0.20;0.20;;;;;;;;;;5062515;28;20028;-74
2023/12/23 07:13:05;;;;;;;1.10;0.68;;;;;;;;;;5062492;28;20265;-74
2023/12/23 07:15:31;;;;;;;0.22;0.22;;;;;;;;;;5063226;28;20348;-74
2023/12/23 07:17:57;;;;;;;1.23;0.38;;;;;;;;;;5045309;28;20024;-74
2023/12/23 07:20:23;;;;;;;0.20;0.20;;;;;;;;;;5063092;28;20067;-75
2023/12/23 07:22:49;;;;;;;0.20;0.20;;;;;;;;;;5064321;28;20029;-75
2023/12/23 07:25:16;;;;;;;0.40;0.20;;;1.80;99.90;;;;;;5062547;28;20033;-73
2023/12/23 07:27:42;;;;;;;0.20;0.20;;;2.00;99.90;;;;;;5061991;28;20021;-73
2023/12/23 07:30:08;;;;;;;0.17;0.17;;;2.00;99.90;;;;;;5061777;28;20221;-74
2023/12/23 07:32:34;;;;;;;1.15;0.30;;;;;;;;;;5061941;28;20380;-73
2023/12/23 07:35:00;;;;;;;0.20;0.20;;;;;;;;;;5061993;28;20052;-74
2023/12/23 07:37:26;;;;;;;0.05;0.05;;;;;;;;;;5047938;28;20033;-75
2023/12/23 07:39:52;;;;;;;0.17;0.17;;;;;;;;;;5043747;28;20048;-75
2023/12/23 07:42:18;;;;;;;0.25;0.25;;;;;;;;;;5044430;28;20305;-76
2023/12/23 07:44:44;;;;;;;1.60;0.32;;;;;;;;;;5044939;28;20344;-78
2023/12/23 07:47:12;;;;;;;0.43;0.20;;;;;;;;;;5045184;28;20087;-74
2023/12/23 07:49:38;;;;;;;1.02;0.70;;;;;;;;;;5044144;28;20099;-74
2023/12/23 07:52:05;;;;;;;0.17;0.17;;;;;;;;;;5041449;28;20033;-74
2023/12/23 07:54:31;;;;;;;0.50;0.20;;;;;;;;;;5042812;28;20045;-74
2023/12/23 07:56:57;;;;;;;0.80;0.40;;;;;;;;;;5044495;28;20127;-76
2023/12/23 07:59:23;;;;;;;0.47;0.47;;;;;;;;;;5044201;28;20091;-74
2023/12/23 08:01:49;;;;;;;0.65;0.43;;;;;;;;;;5042165;28;20301;-75
2023/12/23 08:04:15;;;;;;;5.35;0.73;;;2.40;99.90;;;;;;5043533;28;20023;-78
2023/12/23 08:06:42;;;;;;;4.00;0.20;;;;;;;;;;5044289;28;20090;-78
2023/12/23 08:09:08;;;;;;;0.60;0.40;;;;;;;;;;5044389;28;20080;-79
2023/12/23 08:11:37;;;;;;;0.63;0.32;;;;;;;;;;5043115;28;20093;-74
2023/12/23 08:14:03;;;;;;;0.98;0.32;;;2.90;98.40;;;;;;5041961;28;20017;-74
2023/12/23 08:16:30;;;;;;;0.75;0.52;;;;;;;;;;5042440;28;20033;-77
2023/12/23 08:18:55;;;;;;;0.63;0.32;;;3.00;99.90;;;;;;5041003;28;20044;-74
2023/12/23 08:21:21;;;;;;;0.25;0.20;;;;;;;;;;5042066;28;20409;-74
2023/12/23 08:23:47;;;;;;;1.05;0.45;;;;;;;;;;5041894;28;20037;-74
2023/12/23 08:26:13;;;;;;;0.50;0.50;;;;;;;;;;5041287;28;20079;-75
2023/12/23 08:28:39;;;;;;;0.60;0.50;;;2.80;99.90;;;;;;5041979;28;20022;-74
2023/12/23 08:31:05;;;;;;;1.23;0.60;;;;;;;;;;5042485;28;20029;-74
2023/12/23 08:33:33;;;;;;;1.33;0.73;;;2.80;97.50;;;;;;5042261;28;20045;-74
2023/12/23 08:35:59;;;;;;;0.65;0.32;;;;;;;;;;5045030;28;20033;-74
2023/12/23 08:38:25;;;;;;;1.15;0.50;;;;;;;;;;5062135;28;20036;-74
2023/12/23 08:40:50;;;;;;;0.30;0.30;;;2.80;99.90;;;;;;5060515;28;20088;-73
2023/12/23 08:43:16;;;;;;;1.60;0.45;;;;;;;;;;5041166;28;20053;-74
2023/12/23 08:45:42;;;;;;;0.93;0.40;;;2.70;99.90;;;;;;5041518;28;20036;-74
2023/12/23 08:48:08;;;;;;;4.13;0.45;;;2.80;99.90;;;;;;5040759;28;20036;-74
2023/12/23 08:50:34;;;;;;;1.33;0.50;;;3.10;99.90;;;;;;5041292;28;20026;-73
2023/12/23 08:53:00;;;;;;;0.98;0.40;;;2.70;97.60;;;;;;5043948;28;20029;-74
2023/12/23 08:55:26;;;;;;;1.38;0.30;;;;;;;;;;5045102;28;20061;-73
2023/12/23 08:57:52;;;;;;;0.85;0.50;;;;;;;;;;5044887;28;20369;-73
2023/12/23 09:00:18;;;;;;;1.67;0.60;;;;;;;;;;5046046;28;20083;-74
2023/12/23 09:02:44;;;;;;;2.35;0.43;;;;;;;;;;5029091;28;20040;-74
2023/12/23 09:05:09;;;;;;;0.68;0.57;;;2.70;99.90;;;;;;5047639;28;20156;-76
2023/12/23 09:07:36;;;;;;;1.95;0.60;;;2.80;92.60;;;;;;5048012;28;20313;-76
2023/12/23 09:10:04;;;;;;;1.05;0.68;;;2.80;92.10;;;;;;5045011;28;20044;-74
2023/12/23 09:12:30;;;;;;;2.05;1.00;;;;;;;;;;5045479;28;20029;-74
2023/12/23 09:14:58;;;;;;;3.22;0.85;;;;;;;;;;5045261;28;20045;-74
2023/12/23 09:17:24;;;;;;;1.80;0.65;;;;;;;;;;5045113;28;20033;-74
2023/12/23 09:19:50;;;;;;;3.88;0.75;;;;;;;;;;5044613;28;20029;-74
2023/12/23 09:22:16;;;;;;;1.80;0.85;;;;;;;;;;5043770;28;20405;-73
2023/12/23 09:24:45;;;;;;;4.28;0.50;;;;;;;;;;5044623;28;20061;-74
2023/12/23 09:27:11;;;;;;;1.75;0.60;;;3.40;95.00;;;;;;5045146;28;20229;-73
2023/12/23 09:29:37;;;;;;;1.85;0.50;;;;;;;;;;5044535;28;20033;-74
2023/12/23 09:32:03;;;;;;;4.47;0.55;;;;;;;;;;5044329;28;20048;-73
2023/12/23 09:34:29;;;;;;;2.50;0.50;;;;;;;;;;5044422;28;20232;-73
2023/12/23 09:36:55;;;;;;;4.05;0.57;;;3.40;94.80;;;;;;5036798;28;20036;-73
2023/12/23 09:39:21;;;;;;;1.42;0.82;;;;;;;;;;5064468;28;20051;-73
2023/12/23 09:41:47;;;;;;;1.65;0.40;;;;;;;;;;5064943;28;20032;-73
2023/12/23 09:44:13;;;;;;;3.47;1.10;;;;;;;;;;5046649;28;20500;-73
2023/12/23 09:46:39;;;;;;;1.50;0.50;;;3.50;92.70;;;;;;5065387;28;20032;-74
2023/12/23 09:49:05;;;;;;;1.17;0.65;;;;;;;;;;5065346;28;20320;-75
2023/12/23 09:51:32;;;;;;;1.25;0.70;;;3.40;84.40;;;;;;5064751;28;20032;-74
2023/12/23 09:54:01;;;;;;;4.30;0.40;;;3.10;94.60;;;;;;5064442;28;20032;-74
2023/12/23 09:56:28;;;;;;;2.30;0.90;;;3.10;85.10;;;;;;5063510;28;20214;-73
2023/12/23 09:58:54;;;;;;;0.65;0.35;;;;;;;;;;5063897;28;20088;-73
2023/12/23 10:01:20;;;;;;;2.60;0.60;;;;;;;;;;5063843;28;20247;-74
2023/12/23 10:03:47;;;;;;;1.27;0.35;;;;;;;;;;5063150;28;20332;-73
2023/12/23 10:06:13;;;;;;;2.88;0.80;;;;;;;;;;5063334;28;20297;-73
2023/12/23 10:08:43;;;;;;;0.15;0.10;;;3.00;84.30;;;;;;5064182;28;20099;-73
2023/12/23 10:11:09;;;;;;;3.15;0.55;;;;;;;;;;5063555;28;20036;-73
2023/12/23 10:13:36;;;;;;;0.52;0.30;;;2.90;84.70;;;;;;5063290;28;20036;-73
2023/12/23 10:16:03;;;;;;;2.03;0.30;;;;;;;;;;5063334;28;20044;-74
2023/12/23 10:18:29;;;;;;;2.97;0.80;;;;;;;;;;5063323;28;20029;-72
2023/12/23 10:20:55;;;;;;;6.55;1.45;;;;;;;;;;5063258;28;20052;-74
2023/12/23 10:23:21;;;;;;;4.88;1.40;;;;;;;;;;5063084;28;20024;-73
2023/12/23 10:25:47;;;;;;;3.83;0.50;;;;;;;;;;5062867;28;20029;-73
2023/12/23 10:28:17;;;;;;;0.85;0.43;;;3.00;83.20;;;;;;5045403;28;20029;-73
2023/12/23 10:30:50;;;;;;;2.70;0.80;;;3.30;87.30;;;;;;5045259;28;20044;-74
2023/12/23 10:33:17;;;;;;;1.70;0.80;;;2.90;84.30;;;;;;5051650;28;20084;-74
2023/12/23 10:35:44;;;;;;;1.17;0.45;;;;;;;;;;5037926;28;20073;-74
2023/12/23 10:38:10;;;;;;;0.90;0.52;;;;;;;;;;5063985;28;20071;-74
2023/12/23 10:40:36;;;;;;;10.10;0.95;;;2.90;90.00;;;;;;5064132;28;20029;-75
2023/12/23 10:43:03;;;;;;;3.20;0.95;;;2.70;95.30;;;;;;5064150;28;20028;-74
2023/12/23 10:45:31;;;;;;;3.22;0.90;;;;;;;;;;5057494;28;20060;-74
2023/12/23 10:48:00;;;;;;;5.85;2.08;;;2.90;83.50;;;;;;5044220;28;20018;-74
2023/12/23 10:50:26;;;;;;;1.15;0.60;;;;;;;;;;5028380;28;20037;-73
2023/12/23 10:52:53;;;;;;;3.63;1.27;;;2.90;81.30;;;;;;5034969;28;20033;-74
2023/12/23 10:55:22;;;;;;;2.00;0.90;;;2.80;81.90;;;;;;5023282;28;20101;-73
2023/12/23 10:57:51;;;;;;;0.88;0.32;;;2.80;80.20;;;;;;5030327;28;20312;-73
2023/12/23 11:00:17;;;;;;;0.82;0.35;;;2.90;94.20;;;;;;5042571;28;20064;-73
2023/12/23 11:02:45;;;;;;;3.17;0.70;;;2.80;80.20;;;;;;5041917;28;20038;-74
2023/12/23 11:05:12;;;;;;;3.40;1.02;;;2.80;80.20;;;;;;5022411;28;20036;-73
2023/12/23 11:07:43;;;;;;;2.08;0.77;;;2.80;80.20;;;;;;5040916;28;20092;-73
2023/12/23 11:10:10;;;;;;;3.42;0.60;;;2.80;79.20;;;;;;5042544;28;20052;-73
2023/12/23 11:12:38;;;;;;;1.20;0.50;;;2.80;78.20;;;;;;5041331;28;20230;-73
2023/12/23 11:15:04;;;;;;;1.30;0.50;;;2.60;77.50;;;;;;5021417;28;20344;-73
2023/12/23 11:17:31;;;;;;;0.30;0.30;;;2.90;93.00;;;;;;5028433;28;20017;-73
2023/12/23 11:19:59;;;;;;;0.85;0.60;;;2.20;89.90;;;;;;5041494;28;20274;-73
2023/12/23 11:22:27;;;;;;;1.05;0.30;;;2.00;87.20;;;;;;5041894;28;20028;-73
2023/12/23 11:24:53;;;;;;;0.47;0.40;;;;;;;;;;5038873;28;20048;-74
2023/12/23 11:27:48;;;;;;;1.65;0.20;;;1.40;94.90;;;;;;5023223;28;20029;-74
2023/12/23 11:30:14;;;;;;;1.13;0.57;;;;;;;;;;5006080;28;20061;-74
2023/12/23 11:32:41;;;;;;;2.55;1.00;;;1.20;99.90;;;;;;5022750;28;20014;-74
2023/12/23 11:35:12;;;;;;;3.63;0.50;;;0.50;99.60;;;;;;5023017;28;20042;-74
2023/12/23 11:37:56;;;;;;;1.45;0.30;;;0.90;99.90;;;;;;5055011;28;20027;-74
2023/12/23 11:40:22;;;;;;;0.85;0.50;;;;;;;;;;5054226;28;20214;-74
2023/12/23 11:42:49;;;;;;;4.75;1.08;;;0.80;99.90;;;;;;5043590;28;20028;-74
2023/12/23 11:45:15;;;;;;;1.08;0.68;;;;;;;;;;5042748;28;20025;-74
2023/12/23 11:47:41;;;;;;;5.28;0.80;;;;;;;;;;5035380;28;20035;-74
2023/12/23 11:50:08;;;;;;;2.97;0.43;;;0.70;99.90;;;;;;5022756;28;20037;-74
2023/12/23 11:52:35;;;;;;;2.85;0.80;;;0.70;99.90;;;;;;5022617;28;20330;-74
2023/12/23 11:55:02;;;;;;;1.85;0.55;;;;;;;;;;5022362;28;20037;-74
2023/12/23 11:57:28;;;;;;;0.85;0.45;;;;;;;;;;5022248;28;20053;-74
2023/12/23 11:59:58;;;;;;;2.88;0.70;;;0.80;99.90;;;;;;5022678;28;20049;-74
2023/12/23 12:02:24;;;;;;;3.65;0.70;;;;;;;;;;5021386;28;20141;-73
2023/12/23 12:04:51;;;;;;;1.33;0.90;;;0.70;99.90;;;;;;5021191;28;20033;-73
2023/12/23 12:07:19;;;;;;;2.03;0.73;;;0.80;99.90;;;;;;5030225;28;20036;-73
2023/12/23 12:09:48;;;;;;;3.45;0.77;;;;;;;;;;5021472;28;20052;-73
2023/12/23 12:12:14;;;;;;;1.58;1.00;;;0.80;99.90;;;;;;5032847;28;20045;-73
2023/12/23 12:14:40;;;;;;;5.95;2.50;;;;;;;;;;5040993;28;20072;-74
2023/12/23 12:17:09;;;;;;;1.63;0.73;;;0.90;99.90;;;;;;5040950;28;20067;-73
2023/12/23 12:19:35;;;;;;;3.22;1.15;;;1.00;99.90;;;;;;5040941;28;20025;-73
2023/12/23 12:22:01;;;;;;;4.05;1.98;;;;;;;;;;5040624;28;20337;-73
2023/12/23 12:24:27;;;;;;;1.65;0.65;;;;;;;;;;5040771;28;20033;-74
2023/12/23 12:26:54;;;;;;;2.45;0.80;;;;;;;;;;5040458;28;20025;-73
2023/12/23 12:29:21;;;;;;;2.88;1.77;;;1.20;99.90;;;;;;5040955;28;20453;-73
2023/12/23 12:31:47;;;;;;;5.40;0.80;;;;;;;;;;5041077;28;20084;-73
2023/12/23 12:34:13;;;;;;;1.17;0.68;;;0.90;99.90;;;;;;5041495;28;20029;-75
2023/12/23 12:36:38;;;;;;;1.05;0.70;;;1.20;99.90;;;;;;5049209;28;20020;-74
2023/12/23 12:39:07;;;;;;;0.88;0.82;;;1.30;99.90;;;;;;5061328;28;20021;-74
2023/12/23 12:41:37;;;;;;;0.57;0.50;;;;;;;;;;5061379;28;20099;-76
2023/12/23 12:44:04;;;;;;;4.18;1.45;;;1.50;99.90;;;;;;5043280;28;20032;-76
2023/12/23 12:46:33;;;;;;;2.35;1.70;;;1.50;99.90;;;;;;5062485;28;20029;-74
2023/12/23 12:49:06;;;;;;;2.15;1.65;;;1.50;99.90;;;;;;5061872;28;20021;-74
2023/12/23 12:51:32;;;;;;;5.20;1.90;;;;;;;;;;5063514;28;20105;-74
2023/12/23 12:53:59;;;;;;;7.03;2.10;;;1.40;99.90;;;;;;5045205;28;20032;-74
2023/12/23 12:56:26;;;;;;;5.85;1.60;;;;;;;;;;5044619;28;20049;-74
2023/12/23 12:58:52;;;;;;;3.22;1.20;;;;;;;;;;5055206;28;20113;-75
2023/12/23 13:01:18;;;;;;;2.50;0.85;;;1.30;99.90;;;;;;5044298;28;20096;-76
2023/12/23 13:03:45;;;;;;;1.67;0.73;;;;;;;;;;5044597;28;20025;-76
2023/12/23 13:06:11;;;;;;;3.25;0.70;;;;;;;;;;5066402;23;20536;-77
2023/12/23 13:08:37;;;;;;;1.20;0.57;;;;;;;;;;5081729;28;20044;-76
2023/12/23 13:11:03;;;;;;;2.40;0.73;;;;;;;;;;5065407;28;20263;-77
2023/12/23 13:13:29;;;;;;;3.30;1.25;;;;;;;;;;5084029;28;20051;-74
2023/12/23 13:15:55;;;;;;;4.40;1.95;;;1.20;99.90;;;;;;5082227;28;20036;-75
2023/12/23 13:18:21;;;;;;;2.45;1.45;;;;;;;;;;5082320;28;20044;-75
2023/12/23 13:20:48;;;;;;;2.28;1.30;;;;;;;;;;5065720;28;20038;-75
2023/12/23 13:23:17;;;;;;;2.92;1.20;;;;;;;;;;5083952;28;20063;-74
2023/12/23 13:25:43;;;;;;;;;;;1.10;99.90;;;;;;5084442;28;20028;-76
2023/12/23 13:28:09;;;;;;;4.70;2.20;;;;;;;;;;5083991;28;19908;-76
2023/12/23 13:30:35;;;;;;;6.93;3.95;;;;;;;;;;5084230;28;20220;-79
2023/12/23 13:33:01;;;;;;;35.13;12.88;;;;;;;;;;5084515;28;20301;-75
2023/12/23 13:35:27;;;;;;;13.98;6.63;;;1.00;99.90;;;;;;5083852;28;20044;-76
2023/12/23 13:37:54;;;;;;;7.75;3.35;;;1.20;99.90;;;;;;5085195;28;20039;-76
2023/12/23 13:40:20;;;;;;;12.55;5.07;;;;;;;;;;5087650;28;20347;-75
2023/12/23 13:42:46;;;;;;;6.05;3.33;;;1.00;99.90;;;;;;5086423;28;20027;-75
2023/12/23 13:45:12;;;;;;;5.35;2.88;;;1.10;99.90;;;;;;5069509;28;20099;-76
2023/12/23 13:47:39;;;;;;;4.47;2.78;;;1.00;99.90;;;;;;5087659;28;20267;-76
2023/12/23 13:50:08;;;;;;;4.18;2.58;;;1.10;99.90;;;;;;5087753;28;20110;-75
2023/12/23 13:52:34;;;;;;;;;;;1.10;99.90;;;;;;5088422;28;20024;-79
2023/12/23 13:55:03;;;;;;;6.35;3.50;;;1.20;99.90;;;;;;5087523;28;19920;-76